createdAt,value
2017-10-13T00:02:05.073Z,96.90
2017-10-13T00:04:32.543Z,96.90
2017-10-13T00:07:00.004Z,96.90
2017-10-13T00:09:28.244Z,96.80
2017-10-13T00:11:55.704Z,96.80
2017-10-13T00:14:23.201Z,96.80
2017-10-13T00:16:51.423Z,97.00
2017-10-13T00:19:18.887Z,96.90
2017-10-13T00:21:46.359Z,96.70
2017-10-13T00:24:13.826Z,96.80
2017-10-13T00:26:41.302Z,96.90
2017-10-13T00:29:08.758Z,97.00
2017-10-13T00:31:37.011Z,97.40
2017-10-13T00:34:04.486Z,97.10
2017-10-13T00:36:31.961Z,97.20
2017-10-13T00:39:01.463Z,97.20
2017-10-13T00:41:29.724Z,97.20
2017-10-13T00:43:57.211Z,97.20
2017-10-13T00:46:26.815Z,97.40
2017-10-13T00:48:55.060Z,97.30
2017-10-13T00:51:23.176Z,97.20
2017-10-13T00:53:51.408Z,97.30
2017-10-13T00:56:19.654Z,97.30
2017-10-13T00:58:47.110Z,97.30
2017-10-13T01:01:15.428Z,97.50
2017-10-13T01:03:42.894Z,97.30
2017-10-13T01:06:10.699Z,97.10
2017-10-13T01:08:38.216Z,97.10
2017-10-13T01:11:05.707Z,97.20
2017-10-13T01:13:33.171Z,97.30
2017-10-13T01:16:00.637Z,97.40
2017-10-13T01:18:28.102Z,97.50
2017-10-13T01:20:55.569Z,97.30
2017-10-13T01:23:23.051Z,97.30
2017-10-13T01:25:51.358Z,97.40
2017-10-13T01:28:19.606Z,97.60
2017-10-13T01:30:48.105Z,97.50
2017-10-13T01:33:15.591Z,97.60
2017-10-13T01:35:43.055Z,97.50
2017-10-13T01:38:10.527Z,97.50
2017-10-13T01:40:37.995Z,97.60
2017-10-13T01:43:05.475Z,97.60
2017-10-13T01:45:32.940Z,97.70
2017-10-13T01:48:00.418Z,97.70
2017-10-13T01:50:27.879Z,97.80
2017-10-13T01:52:55.360Z,97.80
2017-10-13T01:55:22.823Z,97.90
2017-10-13T01:57:50.303Z,98.00
2017-10-13T02:00:17.763Z,98.00
2017-10-13T02:02:45.244Z,98.10
2017-10-13T02:05:12.712Z,98.10
2017-10-13T02:07:40.179Z,98.10
2017-10-13T02:10:07.652Z,98.10
2017-10-13T02:12:35.888Z,98.20
2017-10-13T02:15:03.359Z,98.10
2017-10-13T02:17:30.823Z,98.20
2017-10-13T02:19:58.298Z,98.20
2017-10-13T02:22:26.532Z,98.50
2017-10-13T02:24:54.008Z,98.70
2017-10-13T02:27:22.984Z,98.80
2017-10-13T02:29:50.450Z,98.50
2017-10-13T02:32:17.924Z,98.50
2017-10-13T02:34:45.397Z,98.60
2017-10-13T02:37:12.867Z,98.90
2017-10-13T02:39:41.111Z,99.10
2017-10-13T02:42:08.585Z,99.00
2017-10-13T02:44:36.056Z,99.00
2017-10-13T02:47:04.315Z,98.90
2017-10-13T02:49:31.790Z,99.00
2017-10-13T02:52:00.047Z,99.30
2017-10-13T02:54:27.532Z,99.10
2017-10-13T02:56:55.777Z,99.30
2017-10-13T02:59:23.255Z,99.10
2017-10-13T03:01:50.719Z,98.90
2017-10-13T03:04:18.959Z,99.10
2017-10-13T03:06:46.440Z,98.90
2017-10-13T03:09:13.918Z,98.90
2017-10-13T03:11:42.136Z,99.10
2017-10-13T03:14:09.615Z,99.00
2017-10-13T03:16:37.084Z,99.00
2017-10-13T03:19:04.573Z,98.90
2017-10-13T03:21:32.802Z,99.30
2017-10-13T03:24:00.304Z,99.10
2017-10-13T03:26:28.537Z,99.10
2017-10-13T03:28:56.004Z,99.20
2017-10-13T03:31:24.304Z,99.10
2017-10-13T03:33:52.547Z,99.20
2017-10-13T03:36:20.027Z,99.00
2017-10-13T03:38:47.491Z,99.10
2017-10-13T03:41:14.975Z,99.10
2017-10-13T03:43:43.204Z,99.30
2017-10-13T03:46:10.692Z,99.10
2017-10-13T03:48:38.923Z,99.50
2017-10-13T03:51:06.391Z,99.10
2017-10-13T03:53:33.871Z,98.90
2017-10-13T03:56:01.351Z,99.10
2017-10-13T03:58:29.576Z,99.10
2017-10-13T04:00:57.052Z,99.00
2017-10-13T04:03:24.519Z,99.10
2017-10-13T04:05:52.010Z,99.10
2017-10-13T04:08:20.268Z,99.30
2017-10-13T04:10:47.742Z,99.10
2017-10-13T04:13:15.967Z,99.30
2017-10-13T04:15:43.467Z,99.30
2017-10-13T04:18:11.713Z,99.40
2017-10-13T04:20:39.191Z,99.40
2017-10-13T04:23:06.654Z,99.50
2017-10-13T04:25:34.911Z,99.60
2017-10-13T04:28:02.388Z,99.60
2017-10-13T04:30:29.860Z,99.60
2017-10-13T04:32:58.107Z,99.70
2017-10-13T04:35:25.575Z,99.50
2017-10-13T04:37:53.056Z,99.50
2017-10-13T04:40:20.518Z,99.50
2017-10-13T04:42:47.996Z,99.60
2017-10-13T04:45:15.459Z,99.60
2017-10-13T04:47:43.703Z,99.90
2017-10-13T04:50:11.162Z,99.90
2017-10-13T04:52:38.651Z,99.90
2017-10-13T04:55:06.919Z,99.90
2017-10-13T04:57:34.407Z,99.90
2017-10-13T05:00:01.880Z,99.90
2017-10-13T05:02:29.355Z,99.90
2017-10-13T05:04:56.819Z,99.90
2017-10-13T05:07:24.323Z,99.90
2017-10-13T05:09:52.556Z,99.90
2017-10-13T05:12:20.031Z,99.90
2017-10-13T05:14:47.499Z,99.90
2017-10-13T05:17:14.987Z,99.90
2017-10-13T05:19:43.227Z,99.90
2017-10-13T05:22:10.728Z,99.90
2017-10-13T05:24:38.973Z,99.90
2017-10-13T05:27:06.439Z,99.90
2017-10-13T05:29:33.907Z,99.90
2017-10-13T05:32:02.162Z,99.90
2017-10-13T05:34:29.618Z,99.90
2017-10-13T05:36:57.100Z,99.90
2017-10-13T05:39:24.577Z,99.90
2017-10-13T05:41:52.820Z,99.90
2017-10-13T05:44:20.276Z,99.90
2017-10-13T05:46:47.757Z,99.90
2017-10-13T05:49:15.227Z,99.90
2017-10-13T05:51:43.495Z,99.90
2017-10-13T05:54:10.955Z,99.90
2017-10-13T05:56:39.189Z,99.90
2017-10-13T05:59:06.666Z,99.90
2017-10-13T06:01:34.154Z,99.90
2017-10-13T06:04:01.634Z,99.90
2017-10-13T06:06:29.116Z,99.90
2017-10-13T06:08:56.594Z,99.90
2017-10-13T06:11:24.060Z,99.90
2017-10-13T06:13:51.531Z,99.90
2017-10-13T06:16:19.008Z,99.90
2017-10-13T06:18:47.247Z,99.90
2017-10-13T06:21:14.733Z,99.90
2017-10-13T06:23:42.212Z,99.90
2017-10-13T06:26:10.445Z,99.90
2017-10-13T06:28:37.945Z,99.90
2017-10-13T06:31:06.175Z,99.90
2017-10-13T06:33:33.664Z,99.90
2017-10-13T06:36:01.121Z,99.90
2017-10-13T06:38:28.612Z,99.90
2017-10-13T06:40:56.074Z,99.90
2017-10-13T06:43:23.548Z,99.90
2017-10-13T06:45:51.019Z,99.90
2017-10-13T06:48:18.504Z,99.90
2017-10-13T06:50:46.732Z,99.90
2017-10-13T06:53:14.206Z,99.90
2017-10-13T06:55:41.691Z,99.90
2017-10-13T06:58:09.927Z,99.90
2017-10-13T07:00:37.410Z,99.90
2017-10-13T07:03:04.867Z,99.90
2017-10-13T07:05:32.340Z,99.90
2017-10-13T07:08:00.573Z,99.90
2017-10-13T07:10:28.044Z,99.90
2017-10-13T07:12:55.507Z,99.90
2017-10-13T07:15:22.976Z,99.90
2017-10-13T07:17:50.439Z,99.90
2017-10-13T07:20:17.907Z,99.90
2017-10-13T07:22:46.135Z,99.90
2017-10-13T07:25:14.806Z,99.90
2017-10-13T07:27:42.259Z,99.90
2017-10-13T07:30:09.744Z,99.80
2017-10-13T07:32:37.216Z,99.90
2017-10-13T07:35:05.469Z,99.70
2017-10-13T07:37:32.935Z,99.70
2017-10-13T07:40:00.416Z,99.60
2017-10-13T07:42:28.667Z,98.90
2017-10-13T07:44:56.145Z,98.90
2017-10-13T07:47:24.376Z,98.80
2017-10-13T07:49:51.852Z,98.80
2017-10-13T07:52:19.318Z,98.50
2017-10-13T07:54:46.805Z,98.10
2017-10-13T07:57:15.035Z,98.00
2017-10-13T07:59:42.517Z,97.90
2017-10-13T08:02:09.985Z,98.10
2017-10-13T08:04:38.244Z,97.90
2017-10-13T08:07:05.724Z,97.50
2017-10-13T08:09:33.961Z,97.20
2017-10-13T08:12:01.431Z,97.20
2017-10-13T08:14:28.893Z,96.70
2017-10-13T08:16:56.370Z,96.60
2017-10-13T08:19:24.604Z,96.30
2017-10-13T08:21:52.084Z,96.30
2017-10-13T08:24:19.550Z,96.70
2017-10-13T08:26:47.040Z,96.30
2017-10-13T08:29:15.272Z,96.20
2017-10-13T08:31:42.759Z,96.10
2017-10-13T08:34:10.992Z,96.10
2017-10-13T08:36:38.480Z,96.10
2017-10-13T08:39:05.948Z,95.70
2017-10-13T08:41:34.239Z,95.60
2017-10-13T08:44:02.484Z,95.80
2017-10-13T08:46:29.964Z,95.50
2017-10-13T08:48:58.218Z,96.30
2017-10-13T08:51:25.695Z,96.20
2017-10-13T08:53:53.944Z,96.30
2017-10-13T08:56:21.679Z,96.30
2017-10-13T08:58:49.145Z,96.00
2017-10-13T09:01:16.620Z,95.80
2017-10-13T09:03:44.089Z,95.80
2017-10-13T09:06:11.565Z,95.90
2017-10-13T09:08:40.172Z,95.40
2017-10-13T09:11:08.421Z,95.20
2017-10-13T09:13:35.900Z,95.20
2017-10-13T09:16:04.146Z,95.40
2017-10-13T09:18:31.620Z,95.30
2017-10-13T09:20:59.083Z,95.30
2017-10-13T09:23:27.327Z,95.60
2017-10-13T09:25:54.920Z,95.50
2017-10-13T09:28:23.168Z,94.90
2017-10-13T09:30:50.631Z,95.10
2017-10-13T09:33:18.837Z,94.60
2017-10-13T09:35:47.067Z,94.90
2017-10-13T09:38:14.555Z,94.90
2017-10-13T09:40:42.033Z,95.10
2017-10-13T09:43:10.289Z,94.80
2017-10-13T09:45:37.750Z,94.80
2017-10-13T09:48:05.232Z,94.60
2017-10-13T09:50:33.484Z,94.80
2017-10-13T09:53:00.953Z,94.80
2017-10-13T09:55:29.222Z,94.80
2017-10-13T09:57:56.687Z,94.80
2017-10-13T10:00:25.080Z,94.90
2017-10-13T10:02:53.313Z,94.50
2017-10-13T10:05:20.791Z,94.40
2017-10-13T10:07:48.296Z,94.40
2017-10-13T10:10:15.779Z,94.20
2017-10-13T10:12:43.250Z,94.10
2017-10-13T10:15:10.728Z,93.90
2017-10-13T10:17:38.201Z,93.90
2017-10-13T10:20:06.449Z,94.10
2017-10-13T10:22:33.912Z,94.00
2017-10-13T10:25:01.391Z,94.60
2017-10-13T10:27:29.624Z,93.60
2017-10-13T10:29:57.106Z,93.50
2017-10-13T10:32:24.559Z,93.70
2017-10-13T10:34:52.053Z,93.30
2017-10-13T10:37:20.294Z,93.20
2017-10-13T10:39:47.775Z,93.20
2017-10-13T10:42:15.994Z,93.70
2017-10-13T10:44:43.472Z,93.70
2017-10-13T10:47:10.930Z,93.40
2017-10-13T10:49:38.412Z,93.60
2017-10-13T10:52:05.883Z,93.40
2017-10-13T10:54:34.138Z,93.40
2017-10-13T10:57:01.609Z,93.40
2017-10-13T10:59:29.074Z,94.00
2017-10-13T11:01:57.311Z,93.70
2017-10-13T11:04:24.791Z,93.70
2017-10-13T11:06:52.269Z,94.00
2017-10-13T11:09:20.515Z,94.20
2017-10-13T11:11:47.979Z,94.10
2017-10-13T11:14:15.452Z,93.40
2017-10-13T11:16:43.699Z,94.10
2017-10-13T11:19:11.160Z,94.10
2017-10-13T11:21:38.629Z,93.40
2017-10-13T11:24:06.095Z,93.60
2017-10-13T11:26:33.580Z,93.90
2017-10-13T11:29:01.822Z,93.60
2017-10-13T11:31:29.284Z,93.50
2017-10-13T11:33:56.746Z,93.50
2017-10-13T11:36:24.225Z,93.50
2017-10-13T11:38:52.458Z,93.30
2017-10-13T11:41:19.936Z,93.20
2017-10-13T11:43:47.396Z,93.30
2017-10-13T11:46:14.893Z,92.90
2017-10-13T11:48:42.388Z,92.90
2017-10-13T11:51:09.884Z,92.90
2017-10-13T11:53:37.344Z,92.50
2017-10-13T11:56:05.585Z,92.80
2017-10-13T11:58:33.062Z,92.80
2017-10-13T12:01:00.536Z,92.90
2017-10-13T12:03:27.999Z,93.10
2017-10-13T12:05:56.235Z,93.00
2017-10-13T12:08:23.696Z,93.00
2017-10-13T12:10:51.167Z,93.60
2017-10-13T12:13:18.632Z,93.50
2017-10-13T12:15:46.114Z,93.50
2017-10-13T12:18:14.396Z,93.40
2017-10-13T12:20:42.638Z,93.40
2017-10-13T12:23:10.102Z,93.40
2017-10-13T12:25:38.471Z,93.00
2017-10-13T12:28:05.952Z,92.70
2017-10-13T12:30:33.425Z,92.80
2017-10-13T12:33:01.822Z,92.20
2017-10-13T12:35:29.331Z,92.20
2017-10-13T12:37:56.809Z,92.50
2017-10-13T12:40:24.292Z,92.20
2017-10-13T12:42:52.524Z,93.10
2017-10-13T12:45:19.988Z,93.10
2017-10-13T12:47:47.456Z,93.00
2017-10-13T12:50:14.952Z,93.00
2017-10-13T12:52:42.419Z,92.60
2017-10-13T12:55:09.900Z,92.70
2017-10-13T12:57:37.377Z,93.00
2017-10-13T13:00:04.834Z,92.70
2017-10-13T13:02:32.315Z,92.80
2017-10-13T13:05:00.544Z,92.80
2017-10-13T13:07:28.031Z,92.80
2017-10-13T13:09:55.478Z,92.80
2017-10-13T13:12:22.999Z,93.00
2017-10-13T13:14:50.473Z,92.90
2017-10-13T13:17:17.943Z,92.70
2017-10-13T13:19:45.416Z,92.40
2017-10-13T13:22:12.888Z,92.40
2017-10-13T13:24:40.378Z,92.60
2017-10-13T13:27:07.844Z,92.80
2017-10-13T13:29:35.316Z,92.70
2017-10-13T13:32:02.795Z,93.20
2017-10-13T13:34:30.264Z,93.10
2017-10-13T13:36:57.736Z,92.80
2017-10-13T13:39:25.217Z,92.60
2017-10-13T13:41:53.029Z,92.80
2017-10-13T13:44:20.495Z,92.90
2017-10-13T13:46:47.957Z,93.40
2017-10-13T13:49:15.441Z,93.60
2017-10-13T13:51:42.969Z,93.30
2017-10-13T13:54:10.431Z,93.30
2017-10-13T13:56:37.933Z,93.50
2017-10-13T13:59:05.407Z,93.60
2017-10-13T14:01:33.631Z,93.90
2017-10-13T14:04:01.108Z,93.90
2017-10-13T14:06:28.568Z,93.40
2017-10-13T14:08:56.177Z,93.30
2017-10-13T14:11:24.443Z,93.60
2017-10-13T14:13:53.091Z,93.40
2017-10-13T14:16:20.551Z,93.40
2017-10-13T14:18:48.059Z,93.70
2017-10-13T14:21:16.288Z,93.60
2017-10-13T14:23:43.795Z,93.60
2017-10-13T14:26:11.949Z,93.60
2017-10-13T14:28:40.237Z,94.20
2017-10-13T14:31:08.477Z,94.50
2017-10-13T14:33:35.955Z,94.50
2017-10-13T14:36:03.439Z,94.60
2017-10-13T14:38:31.685Z,94.80
2017-10-13T14:40:59.151Z,94.80
2017-10-13T14:43:26.644Z,94.60
2017-10-13T14:45:54.114Z,94.70
2017-10-13T14:48:22.347Z,94.30
2017-10-13T14:50:50.592Z,94.00
2017-10-13T14:53:18.056Z,94.00
2017-10-13T14:55:45.528Z,94.20
2017-10-13T14:58:12.993Z,94.70
2017-10-13T15:00:41.243Z,94.40
2017-10-13T15:03:08.703Z,94.30
2017-10-13T15:05:36.188Z,94.50
2017-10-13T15:08:04.423Z,94.50
2017-10-13T15:10:31.892Z,94.50
2017-10-13T15:12:59.372Z,94.50
2017-10-13T15:15:26.844Z,94.70
2017-10-13T15:17:55.075Z,94.90
2017-10-13T15:20:22.538Z,94.90
2017-10-13T15:22:50.019Z,94.80
2017-10-13T15:25:23.128Z,95.00
2017-10-13T15:27:57.066Z,95.30
2017-10-13T15:30:30.281Z,95.30
2017-10-13T15:33:03.585Z,95.20
2017-10-13T15:35:36.776Z,95.40
2017-10-13T15:38:09.804Z,95.50
2017-10-13T15:40:43.660Z,95.70
2017-10-13T15:43:16.895Z,95.70
2017-10-13T15:45:51.895Z,95.60
2017-10-13T15:48:25.941Z,95.80
2017-10-13T15:50:59.227Z,95.90
2017-10-13T15:53:26.683Z,96.30
2017-10-13T15:55:54.183Z,96.50
2017-10-13T15:58:22.433Z,96.80
2017-10-13T16:00:49.897Z,96.80
2017-10-13T16:03:17.380Z,97.10
2017-10-13T16:05:45.609Z,97.30
2017-10-13T16:08:13.080Z,97.30
2017-10-13T16:10:40.553Z,97.60
2017-10-13T16:13:08.806Z,97.90
2017-10-13T16:15:36.280Z,97.90
2017-10-13T16:18:03.792Z,98.10
2017-10-13T16:20:31.262Z,98.00
2017-10-13T16:22:58.754Z,98.00
2017-10-13T16:25:26.218Z,98.20
2017-10-13T16:27:53.700Z,98.20
2017-10-13T16:30:21.193Z,98.40
2017-10-13T16:32:48.678Z,98.50
2017-10-13T16:35:16.145Z,98.70
2017-10-13T16:37:43.648Z,98.60
2017-10-13T16:40:11.115Z,98.70
2017-10-13T16:42:38.575Z,98.70
2017-10-13T16:45:06.058Z,98.90
2017-10-13T16:47:33.526Z,99.10
2017-10-13T16:50:01.763Z,99.10
2017-10-13T16:52:29.230Z,99.00
2017-10-13T16:54:56.707Z,99.00
2017-10-13T16:57:24.219Z,99.10
2017-10-13T16:59:51.707Z,99.20
2017-10-13T17:02:19.176Z,99.20
2017-10-13T17:04:47.428Z,99.40
2017-10-13T17:07:14.935Z,99.20
2017-10-13T17:09:43.176Z,99.50
2017-10-13T17:12:10.648Z,99.50
2017-10-13T17:14:38.123Z,99.60
2017-10-13T17:17:06.366Z,99.60
2017-10-13T17:19:34.974Z,99.60
2017-10-13T17:22:03.219Z,99.70
2017-10-13T17:24:30.694Z,99.70
2017-10-13T17:26:58.929Z,99.90
2017-10-13T17:29:26.415Z,99.90
2017-10-13T17:31:53.876Z,99.90
2017-10-13T17:34:21.352Z,99.80
2017-10-13T17:36:48.820Z,99.80
2017-10-13T17:39:17.065Z,99.90
2017-10-13T17:41:44.535Z,99.60
2017-10-13T17:44:12.002Z,99.60
2017-10-13T17:46:39.479Z,99.50
2017-10-13T17:49:07.712Z,99.40
2017-10-13T17:51:35.200Z,99.30
2017-10-13T17:54:02.666Z,99.50
2017-10-13T17:56:30.135Z,99.50
2017-10-13T17:58:58.384Z,99.50
2017-10-13T18:01:25.855Z,99.40
2017-10-13T18:03:54.108Z,99.70
2017-10-13T18:06:21.578Z,99.70
2017-10-13T18:08:49.056Z,99.50
2017-10-13T18:11:17.309Z,99.90
2017-10-13T18:13:44.791Z,99.90
2017-10-13T18:16:12.258Z,99.90
2017-10-13T18:18:40.497Z,99.90
2017-10-13T18:21:07.971Z,99.90
2017-10-13T18:23:35.457Z,99.90
2017-10-13T18:26:03.699Z,99.90
2017-10-13T18:28:31.178Z,99.90
2017-10-13T18:30:59.423Z,99.90
2017-10-13T18:33:26.886Z,99.90
2017-10-13T18:35:54.368Z,99.90
2017-10-13T18:38:22.604Z,99.90
2017-10-13T18:40:50.089Z,99.90
2017-10-13T18:43:17.549Z,99.90
2017-10-13T18:45:45.798Z,99.90
2017-10-13T18:48:13.284Z,99.90
2017-10-13T18:50:40.751Z,99.90
2017-10-13T18:53:08.244Z,99.90
2017-10-13T18:55:35.721Z,99.90
2017-10-13T18:58:03.195Z,99.90
2017-10-13T19:00:31.434Z,99.90
2017-10-13T19:02:58.904Z,99.90
2017-10-13T19:05:26.379Z,99.90
2017-10-13T19:07:53.855Z,99.90
2017-10-13T19:10:21.327Z,99.90
2017-10-13T19:12:48.799Z,99.90
2017-10-13T19:15:16.250Z,99.90
2017-10-13T19:17:43.723Z,99.90
2017-10-13T19:20:11.962Z,99.90
2017-10-13T19:22:39.439Z,99.90
2017-10-13T19:25:07.683Z,99.90
2017-10-13T19:27:35.152Z,99.90
2017-10-13T19:30:02.624Z,99.90
2017-10-13T19:32:30.862Z,99.90
2017-10-13T19:34:58.327Z,99.90
2017-10-13T19:37:25.805Z,99.90
2017-10-13T19:39:53.281Z,99.90
2017-10-13T19:42:20.755Z,99.90
2017-10-13T19:44:48.986Z,99.90
2017-10-13T19:47:16.476Z,99.90
2017-10-13T19:49:43.952Z,99.90
2017-10-13T19:52:12.195Z,99.90
2017-10-13T19:54:39.656Z,99.90
2017-10-13T19:57:07.133Z,99.90
2017-10-13T19:59:34.657Z,99.90
2017-10-13T20:02:02.129Z,99.90
2017-10-13T20:04:29.768Z,99.90
2017-10-13T20:06:57.266Z,99.90
2017-10-13T20:09:24.739Z,99.90
2017-10-13T20:11:52.984Z,99.90
2017-10-13T20:14:20.455Z,99.90
2017-10-13T20:16:47.938Z,99.90
2017-10-13T20:19:16.173Z,99.90
2017-10-13T20:21:43.670Z,99.90
2017-10-13T20:24:11.905Z,99.90
2017-10-13T20:26:39.390Z,99.90
2017-10-13T20:29:06.897Z,99.90
2017-10-13T20:31:34.406Z,99.90
2017-10-13T20:34:01.872Z,99.90
2017-10-13T20:36:29.348Z,99.90
2017-10-13T20:38:56.836Z,99.90
2017-10-13T20:41:24.307Z,99.90
2017-10-13T20:43:52.539Z,99.90
2017-10-13T20:46:20.017Z,99.90
2017-10-13T20:48:47.504Z,99.90
2017-10-13T20:51:15.744Z,99.90
2017-10-13T20:53:43.221Z,99.90
2017-10-13T20:56:10.680Z,99.90
2017-10-13T20:58:38.164Z,99.90
2017-10-13T21:01:06.399Z,99.90
2017-10-13T21:03:33.889Z,99.90
2017-10-13T21:06:02.124Z,99.90
2017-10-13T21:08:30.367Z,99.90
2017-10-13T21:10:57.841Z,99.90
2017-10-13T21:13:25.330Z,99.90
2017-10-13T21:15:52.808Z,99.90
2017-10-13T21:18:20.284Z,99.90
2017-10-13T21:20:48.537Z,99.90
2017-10-13T21:23:15.998Z,99.90
2017-10-13T21:25:43.491Z,99.90
2017-10-13T21:28:10.962Z,99.90
2017-10-13T21:30:38.445Z,99.90
2017-10-13T21:33:05.926Z,99.90
2017-10-13T21:35:33.401Z,99.90
2017-10-13T21:38:01.630Z,99.90
2017-10-13T21:40:29.132Z,99.90
2017-10-13T21:42:56.603Z,99.90
2017-10-13T21:45:24.881Z,99.90
2017-10-13T21:47:53.111Z,99.90
2017-10-13T21:50:20.589Z,99.90
2017-10-13T21:52:48.064Z,99.90
2017-10-13T21:55:16.325Z,99.90
2017-10-13T21:57:43.795Z,99.90
2017-10-13T22:00:11.267Z,99.90
2017-10-13T22:02:40.763Z,99.90
2017-10-13T22:05:09.025Z,99.90
2017-10-13T22:07:36.496Z,99.90
2017-10-13T22:10:04.001Z,99.90
2017-10-13T22:12:31.526Z,99.90
2017-10-13T22:14:59.769Z,99.90
2017-10-13T22:17:27.240Z,99.90
2017-10-13T22:19:54.731Z,99.90
2017-10-13T22:22:22.207Z,99.90
2017-10-13T22:24:49.677Z,99.90
2017-10-13T22:27:17.161Z,99.90
2017-10-13T22:29:44.658Z,99.90
2017-10-13T22:32:12.908Z,99.90
2017-10-13T22:34:40.380Z,99.90
2017-10-13T22:37:07.880Z,99.90
2017-10-13T22:39:35.349Z,99.90
2017-10-13T22:42:02.823Z,99.90
2017-10-13T22:44:31.088Z,99.90
2017-10-13T22:46:58.559Z,99.90
2017-10-13T22:49:26.040Z,99.90
2017-10-13T22:51:53.529Z,99.90
2017-10-13T22:54:21.024Z,99.90
2017-10-13T22:56:48.504Z,99.90
2017-10-13T22:59:15.977Z,99.90
2017-10-13T23:01:43.451Z,99.90
2017-10-13T23:04:11.685Z,99.90
2017-10-13T23:06:39.156Z,99.90
2017-10-13T23:09:06.625Z,99.90
2017-10-13T23:11:34.106Z,99.90
2017-10-13T23:14:02.353Z,99.90
2017-10-13T23:16:29.864Z,99.90
2017-10-13T23:18:57.340Z,99.90
2017-10-13T23:21:24.805Z,99.90
2017-10-13T23:23:52.311Z,99.90
2017-10-13T23:26:20.547Z,99.90
2017-10-13T23:28:48.041Z,99.90
2017-10-13T23:31:16.279Z,99.90
2017-10-13T23:33:44.528Z,99.90
2017-10-13T23:36:12.004Z,99.90
2017-10-13T23:38:39.478Z,99.90
2017-10-13T23:41:06.948Z,99.90
2017-10-13T23:43:45.961Z,99.90
2017-10-13T23:46:13.839Z,99.90
2017-10-13T23:48:41.325Z,99.90
2017-10-13T23:51:08.811Z,99.90
2017-10-13T23:53:36.281Z,99.90
2017-10-13T23:56:04.518Z,99.90
2017-10-13T23:58:32.017Z,99.90
